• Join FlightAware (Why Join?)
  • Login
  • US Flag 
02:46AM EDT


 

Airport Tracker/Info


-or-


 

Live Flight TrackerFlight Track Log ✈ N135FL ✈ 09-Nov-2013 ✈ KGNV - KAPF

Flight Track Log - Related Links

Times and Time Zones

All times are in EST time to prevent confusion due to time zone crossing. See the N135FL flight status page for this flight to view local times or setup timezone preferences in your user account.

Time Position Orientation Groundspeed Altitude Reporting Facility
EST Latitude Longitude Course Direction KTS MPH feet Rate Location/Type
06:12PM 29.6844 -82.2592 137° Southeast 116 133 500  Level Jacksonville Center
06:13PM 29.6594 -82.2328 137° Southeast 157 181 1,100 660 Climbing Jacksonville Center
06:13PM 29.6447 -82.2211 145° Southeast 164 189 1,300 1,260 Climbing Jacksonville Center
06:14PM 29.6092 -82.2069 161° South 156 180 2,700 1,320 Climbing Jacksonville Center
06:15PM 29.5714 -82.1906 159° South 156 180 4,000 1,200 Climbing Jacksonville Center
06:16PM 29.5317 -82.1694 155° Southeast 156 180 5,100 1,080 Climbing Jacksonville Center
06:17PM 29.4897 -82.1531 161° South 156 180 6,200 1,020 Climbing Jacksonville Center
06:18PM 29.4439 -82.1367 163° South 162 186 7,200 1,020 Climbing Jacksonville Center
06:19PM 29.4000 -82.1250 167° South 167 192 8,300 1,080 Climbing Jacksonville Center
06:20PM 29.3561 -82.1111 165° South 167 192 9,400 1,080 Climbing Jacksonville Center
06:21PM 29.3119 -82.0994 167° South 167 192 10,500 1,080 Climbing Jacksonville Center
06:22PM 29.2661 -82.0856 165° South 167 192 11,600 1,080 Climbing Jacksonville Center
06:23PM 29.2222 -82.0717 165° South 167 192 12,700 1,020 Climbing Jacksonville Center
06:24PM 29.1739 -82.0556 164° South 167 192 13,700 960 Climbing Jacksonville Center
06:25PM 29.1258 -82.0367 161° South 172 198 14,700 960 Climbing Jacksonville Center
06:26PM 29.0778 -82.0206 164° South 172 198 15,700 960 Climbing Jacksonville Center
06:27PM 29.0297 -81.9997 159° South 177 204 16,700 960 Climbing Jacksonville Center
06:28PM 28.9794 -81.9789 160° South 187 215 17,700 840 Climbing Jacksonville Center
06:29PM 28.9292 -81.9603 162° South 187 215 18,400 720 Climbing Jacksonville Center
06:30PM 28.8769 -81.9394 161° South 187 215 19,200 720 Climbing Jacksonville Center
06:31PM 28.8203 -81.9139 158° South 198 228 19,900 660 Climbing Jacksonville Center
06:32PM 28.7617 -81.8908 161° South 209 241 20,600 540 Climbing Jacksonville Center
06:33PM 28.7136 -81.8722 161° South 221 254 21,000 180 Climbing Jacksonville Center
06:34PM 28.6361 -81.8447 163° South 235 270 21,000  Level Jacksonville Center
06:35PM 28.5711 -81.8217 163° South 246 283 21,000  Level Jacksonville Center
06:36PM 28.5022 -81.8011 165° South 246 283 21,000  Level Jacksonville Center
06:37PM 28.4081 -81.7819 170° South 229 264 21,000  Level Miami Center
06:38PM 28.3294 -81.7619 167° South 248 285 21,000  Level Miami Center
06:39PM 28.2656 -81.7450 167° South 256 295 21,000  Level Miami Center
06:40PM 28.1972 -81.7256 166° South 256 295 21,000 -240 Level Miami Center
06:41PM 28.1289 -81.7086 168° South 256 295 20,600 -420 Descending Miami Center
06:42PM 28.0608 -81.6917 168° South 256 295 20,200 -420 Descending Miami Center
06:43PM 27.9925 -81.6744 167° South 256 295 19,800 -420 Descending Miami Center
06:44PM 27.9222 -81.6575 168° South 256 295 19,400 -480 Descending Miami Center
06:45PM 27.8539 -81.6406 168° South 256 295 18,900 -600 Descending Miami Center
06:46PM 27.7875 -81.6236 167° South 256 295 18,200 -660 Descending Miami Center
06:47PM 27.7317 -81.6119 170° South 245 282 17,600 -780 Descending Miami Center
06:48PM 27.6611 -81.5997 171° South 240 276 16,700 -960 Descending Miami Center
06:49PM 27.5989 -81.5831 167° South 235 270 15,700 -1,020 Descending Miami Center
06:50PM 27.5347 -81.5686 169° South 235 270 14,700 -1,020 Descending Miami Center
06:51PM 27.4747 -81.5544 168° South 235 270 13,700 -960 Descending Miami Center
06:52PM 27.4125 -81.5403 169° South 235 270 12,800 -900 Descending Miami Center
06:53PM 27.3547 -81.5239 166° South 235 270 11,900 -900 Descending Miami Center
06:54PM 27.2944 -81.5097 168° South 235 270 11,000 -1,020 Descending Miami Center
06:55PM 27.2386 -81.5006 172° South 218 251 9,900 -900 Descending Miami Center
06:56PM 27.1825 -81.4889 170° South 218 251 9,200 -480 Descending Miami Center
06:57PM 27.1308 -81.4775 169° South 208 239 9,000 -120 Descending Miami Center
06:58PM 27.0811 -81.4639 166° South 197 227 9,000  Level Miami Center
06:59PM 27.0336 -81.4481 163° South 185 213 9,100  Climbing Miami Center
07:00PM 26.9839 -81.4344 166° South 180 207 9,100  Level Miami Center
07:01PM 26.9364 -81.4208 166° South 185 213 9,100  Level Miami Center
07:02PM 26.8867 -81.4072 166° South 180 207 9,100 -60 Level Miami Center
07:03PM 26.8369 -81.3936 166° South 180 207 9,000 -120 Descending Miami Center
07:05PM 26.7791 -81.4048 207° Southwest  Level FlightAware Approximate
07:12PM 26.4351 -81.5991 204° Southwest  Level FlightAware Approximate
07:13PM 26.3848 -81.6243 204° Southwest  Level FlightAware Approximate
07:14PM 26.3375 -81.6552 214° Southwest  Level FlightAware Approximate
07:15PM 26.2913 -81.6886 208° Southwest  Level FlightAware Approximate
07:16PM 26.2428 -81.7177 208° Southwest  Level FlightAware Approximate
07:17PM 26.1934 -81.7449 204° Southwest  Level FlightAware Approximate
07:18PM 26.1500 -81.7667 204° Southwest  Level FlightAware Approximate
07:19PM 26.1524 -81.7756 204° Southwest  Level Estimated
07:20PM 26.1524 -81.7756 204° Southwest  Level Estimated
07:21PM 26.1524 -81.7756 204° Southwest  Level Estimated
07:22PM 26.1524 -81.7756 204° Southwest  Level Estimated
07:23PM 26.1524 -81.7756 204° Southwest  Level Estimated
07:24PM 26.1524 -81.7756 204° Southwest  Level Estimated
07:25PM 26.1524 -81.7756 204° Southwest  Level Estimated
07:26PM 26.1524 -81.7756 204° Southwest  Level Estimated
07:27PM 26.1524 -81.7756 204° Southwest  Level Estimated
07:28PM 26.1524 -81.7756 204° Southwest  Level Estimated
07:29PM 26.1524 -81.7756 204° Southwest  Level Estimated
07:30PM 26.1524 -81.7756 204° Southwest  Level Estimated
07:31PM 26.1524 -81.7756 204° Southwest  Level Estimated
07:32PM 26.1524 -81.7756 204° Southwest  Level Estimated
07:33PM 26.1524 -81.7756 204° Southwest  Level Estimated
07:34PM 26.1524 -81.7756 204° Southwest  Level Estimated
07:35PM 26.1524 -81.7756 204° Southwest  Level Estimated